sensor_id;sensor_type;location;lat;lon;timestamp;temperature;humidity
68867;SHT30;56451;44.804;20.476;2023-08-12T00:01:52;21.99;52.02
68867;SHT30;56451;44.804;20.476;2023-08-12T00:04:18;21.98;51.93
68867;SHT30;56451;44.804;20.476;2023-08-12T00:06:43;21.96;52.03
68867;SHT30;56451;44.804;20.476;2023-08-12T00:09:09;21.99;51.91
68867;SHT30;56451;44.804;20.476;2023-08-12T00:11:41;21.95;51.96
68867;SHT30;56451;44.804;20.476;2023-08-12T00:14:07;21.91;52.14
68867;SHT30;56451;44.804;20.476;2023-08-12T00:16:33;21.89;52.01
68867;SHT30;56451;44.804;20.476;2023-08-12T00:18:59;21.91;52.20
68867;SHT30;56451;44.804;20.476;2023-08-12T00:21:26;21.88;52.11
68867;SHT30;56451;44.804;20.476;2023-08-12T00:23:52;21.85;52.20
68867;SHT30;56451;44.804;20.476;2023-08-12T00:26:18;21.85;52.31
68867;SHT30;56451;44.804;20.476;2023-08-12T00:28:44;21.82;52.34
68867;SHT30;56451;44.804;20.476;2023-08-12T00:31:10;21.78;52.55
68867;SHT30;56451;44.804;20.476;2023-08-12T00:33:36;21.77;52.58
68867;SHT30;56451;44.804;20.476;2023-08-12T00:36:02;21.69;52.58
68867;SHT30;56451;44.804;20.476;2023-08-12T00:38:28;21.69;52.63
68867;SHT30;56451;44.804;20.476;2023-08-12T00:40:54;21.68;52.62
68867;SHT30;56451;44.804;20.476;2023-08-12T00:43:20;21.68;52.48
68867;SHT30;56451;44.804;20.476;2023-08-12T00:45:47;21.64;52.63
68867;SHT30;56451;44.804;20.476;2023-08-12T00:48:14;21.61;52.69
68867;SHT30;56451;44.804;20.476;2023-08-12T00:50:41;21.60;52.69
68867;SHT30;56451;44.804;20.476;2023-08-12T00:53:09;21.60;52.76
68867;SHT30;56451;44.804;20.476;2023-08-12T00:55:35;21.57;52.73
68867;SHT30;56451;44.804;20.476;2023-08-12T00:58:02;21.54;52.77
68867;SHT30;56451;44.804;20.476;2023-08-12T01:00:28;21.54;52.81
68867;SHT30;56451;44.804;20.476;2023-08-12T01:02:56;21.54;52.87
68867;SHT30;56451;44.804;20.476;2023-08-12T01:05:22;21.48;52.92
68867;SHT30;56451;44.804;20.476;2023-08-12T01:07:48;21.48;53.00
68867;SHT30;56451;44.804;20.476;2023-08-12T01:10:15;21.44;53.08
68867;SHT30;56451;44.804;20.476;2023-08-12T01:15:52;21.43;53.29
68867;SHT30;56451;44.804;20.476;2023-08-12T01:18:19;21.44;53.38
68867;SHT30;56451;44.804;20.476;2023-08-12T01:20:47;21.47;53.27
68867;SHT30;56451;44.804;20.476;2023-08-12T01:23:16;21.44;53.33
68867;SHT30;56451;44.804;20.476;2023-08-12T01:25:42;21.46;53.22
68867;SHT30;56451;44.804;20.476;2023-08-12T01:28:08;21.46;53.40
68867;SHT30;56451;44.804;20.476;2023-08-12T01:30:43;21.44;53.25
68867;SHT30;56451;44.804;20.476;2023-08-12T01:33:19;21.39;53.46
68867;SHT30;56451;44.804;20.476;2023-08-12T01:35:52;21.33;53.63
68867;SHT30;56451;44.804;20.476;2023-08-12T01:38:19;21.33;53.67
68867;SHT30;56451;44.804;20.476;2023-08-12T01:40:45;21.24;53.73
68867;SHT30;56451;44.804;20.476;2023-08-12T01:43:12;21.26;53.87
68867;SHT30;56451;44.804;20.476;2023-08-12T01:45:38;21.22;54.03
68867;SHT30;56451;44.804;20.476;2023-08-12T01:48:06;21.24;53.76
68867;SHT30;56451;44.804;20.476;2023-08-12T01:50:32;21.23;53.93
68867;SHT30;56451;44.804;20.476;2023-08-12T01:52:58;21.22;53.84
68867;SHT30;56451;44.804;20.476;2023-08-12T01:55:25;21.23;53.90
68867;SHT30;56451;44.804;20.476;2023-08-12T01:57:51;21.18;53.94
68867;SHT30;56451;44.804;20.476;2023-08-12T02:00:17;21.13;54.20
68867;SHT30;56451;44.804;20.476;2023-08-12T02:02:43;21.09;54.24
68867;SHT30;56451;44.804;20.476;2023-08-12T02:05:13;21.06;54.46
68867;SHT30;56451;44.804;20.476;2023-08-12T02:07:39;21.03;54.51
68867;SHT30;56451;44.804;20.476;2023-08-12T02:10:06;21.06;54.55
68867;SHT30;56451;44.804;20.476;2023-08-12T02:12:31;21.11;54.38
68867;SHT30;56451;44.804;20.476;2023-08-12T02:14:57;21.11;54.22
68867;SHT30;56451;44.804;20.476;2023-08-12T02:17:23;21.09;54.44
68867;SHT30;56451;44.804;20.476;2023-08-12T02:19:51;21.03;54.68
68867;SHT30;56451;44.804;20.476;2023-08-12T02:22:17;21.03;54.67
68867;SHT30;56451;44.804;20.476;2023-08-12T02:24:43;21.02;54.73
68867;SHT30;56451;44.804;20.476;2023-08-12T02:27:08;21.02;54.81
68867;SHT30;56451;44.804;20.476;2023-08-12T02:29:34;20.99;54.96
68867;SHT30;56451;44.804;20.476;2023-08-12T02:34:55;20.95;55.08
68867;SHT30;56451;44.804;20.476;2023-08-12T02:37:21;20.89;55.32
68867;SHT30;56451;44.804;20.476;2023-08-12T02:39:47;20.86;55.48
68867;SHT30;56451;44.804;20.476;2023-08-12T02:42:13;20.86;55.56
68867;SHT30;56451;44.804;20.476;2023-08-12T02:44:39;20.82;55.71
68867;SHT30;56451;44.804;20.476;2023-08-12T02:47:05;20.82;55.86
68867;SHT30;56451;44.804;20.476;2023-08-12T02:49:31;20.76;55.93
68867;SHT30;56451;44.804;20.476;2023-08-12T02:51:57;20.68;56.20
68867;SHT30;56451;44.804;20.476;2023-08-12T02:54:23;20.68;56.15
68867;SHT30;56451;44.804;20.476;2023-08-12T02:56:50;20.69;56.04
68867;SHT30;56451;44.804;20.476;2023-08-12T02:59:16;20.65;56.00
68867;SHT30;56451;44.804;20.476;2023-08-12T03:01:42;20.64;55.95
68867;SHT30;56451;44.804;20.476;2023-08-12T03:04:08;20.64;55.91
68867;SHT30;56451;44.804;20.476;2023-08-12T03:06:34;20.64;55.82
68867;SHT30;56451;44.804;20.476;2023-08-12T03:09:00;20.61;56.00
68867;SHT30;56451;44.804;20.476;2023-08-12T03:11:26;20.61;55.97
68867;SHT30;56451;44.804;20.476;2023-08-12T03:13:54;20.65;55.99
68867;SHT30;56451;44.804;20.476;2023-08-12T03:16:23;20.61;56.03
68867;SHT30;56451;44.804;20.476;2023-08-12T03:18:49;20.62;55.86
68867;SHT30;56451;44.804;20.476;2023-08-12T03:21:15;20.62;55.94
68867;SHT30;56451;44.804;20.476;2023-08-12T03:23:41;20.61;56.06
68867;SHT30;56451;44.804;20.476;2023-08-12T03:26:08;20.56;56.07
68867;SHT30;56451;44.804;20.476;2023-08-12T03:28:35;20.55;56.14
68867;SHT30;56451;44.804;20.476;2023-08-12T03:31:01;20.52;56.25
68867;SHT30;56451;44.804;20.476;2023-08-12T03:33:27;20.48;56.37
68867;SHT30;56451;44.804;20.476;2023-08-12T03:35:55;20.44;56.58
68867;SHT30;56451;44.804;20.476;2023-08-12T03:38:22;20.41;56.81
68867;SHT30;56451;44.804;20.476;2023-08-12T03:40:48;20.38;56.90
68867;SHT30;56451;44.804;20.476;2023-08-12T03:43:17;20.33;56.90
68867;SHT30;56451;44.804;20.476;2023-08-12T03:45:44;20.34;56.97
68867;SHT30;56451;44.804;20.476;2023-08-12T03:48:13;20.31;57.03
68867;SHT30;56451;44.804;20.476;2023-08-12T03:50:40;20.30;57.17
68867;SHT30;56451;44.804;20.476;2023-08-12T03:53:06;20.30;57.34
68867;SHT30;56451;44.804;20.476;2023-08-12T03:55:33;20.23;57.44
68867;SHT30;56451;44.804;20.476;2023-08-12T03:58:00;20.27;57.35
68867;SHT30;56451;44.804;20.476;2023-08-12T04:00:28;20.20;57.40
68867;SHT30;56451;44.804;20.476;2023-08-12T04:02:58;20.23;57.42
68867;SHT30;56451;44.804;20.476;2023-08-12T04:05:24;20.28;57.26
68867;SHT30;56451;44.804;20.476;2023-08-12T04:07:49;20.25;57.34
68867;SHT30;56451;44.804;20.476;2023-08-12T04:10:15;20.23;57.57
68867;SHT30;56451;44.804;20.476;2023-08-12T04:12:42;20.23;57.63
68867;SHT30;56451;44.804;20.476;2023-08-12T04:15:08;20.27;57.39
68867;SHT30;56451;44.804;20.476;2023-08-12T04:17:34;20.33;57.09
68867;SHT30;56451;44.804;20.476;2023-08-12T04:20:02;20.30;57.56
68867;SHT30;56451;44.804;20.476;2023-08-12T04:22:31;20.27;57.64
68867;SHT30;56451;44.804;20.476;2023-08-12T04:24:57;20.23;57.84
68867;SHT30;56451;44.804;20.476;2023-08-12T04:27:23;20.17;57.91
68867;SHT30;56451;44.804;20.476;2023-08-12T04:29:50;20.17;58.00
68867;SHT30;56451;44.804;20.476;2023-08-12T04:32:16;20.16;58.00
68867;SHT30;56451;44.804;20.476;2023-08-12T04:34:45;20.20;57.96
68867;SHT30;56451;44.804;20.476;2023-08-12T04:37:11;20.18;57.78
68867;SHT30;56451;44.804;20.476;2023-08-12T04:39:37;20.18;57.93
68867;SHT30;56451;44.804;20.476;2023-08-12T04:42:03;20.12;57.96
68867;SHT30;56451;44.804;20.476;2023-08-12T04:44:29;20.12;58.06
68867;SHT30;56451;44.804;20.476;2023-08-12T04:46:56;20.13;57.91
68867;SHT30;56451;44.804;20.476;2023-08-12T04:49:22;20.10;57.98
68867;SHT30;56451;44.804;20.476;2023-08-12T04:51:51;20.09;57.93
68867;SHT30;56451;44.804;20.476;2023-08-12T04:54:18;20.16;57.76
68867;SHT30;56451;44.804;20.476;2023-08-12T04:56:44;20.17;57.78
68867;SHT30;56451;44.804;20.476;2023-08-12T04:59:10;20.14;57.85
68867;SHT30;56451;44.804;20.476;2023-08-12T05:01:36;20.14;57.94
68867;SHT30;56451;44.804;20.476;2023-08-12T05:04:03;20.16;58.06
68867;SHT30;56451;44.804;20.476;2023-08-12T05:06:29;20.30;57.56
68867;SHT30;56451;44.804;20.476;2023-08-12T05:08:55;20.30;57.53
68867;SHT30;56451;44.804;20.476;2023-08-12T05:11:21;20.20;57.69
68867;SHT30;56451;44.804;20.476;2023-08-12T05:13:47;20.24;57.59
68867;SHT30;56451;44.804;20.476;2023-08-12T05:16:13;20.28;57.51
68867;SHT30;56451;44.804;20.476;2023-08-12T05:18:39;20.27;57.51
68867;SHT30;56451;44.804;20.476;2023-08-12T05:21:05;20.34;57.40
68867;SHT30;56451;44.804;20.476;2023-08-12T05:23:31;20.30;57.52
68867;SHT30;56451;44.804;20.476;2023-08-12T05:25:57;20.37;57.34
68867;SHT30;56451;44.804;20.476;2023-08-12T05:28:23;20.41;57.18
68867;SHT30;56451;44.804;20.476;2023-08-12T05:30:48;20.42;57.22
68867;SHT30;56451;44.804;20.476;2023-08-12T05:33:14;20.42;57.29
68867;SHT30;56451;44.804;20.476;2023-08-12T05:35:40;20.48;57.08
68867;SHT30;56451;44.804;20.476;2023-08-12T05:38:06;20.45;57.29
68867;SHT30;56451;44.804;20.476;2023-08-12T05:40:32;20.49;57.17
68867;SHT30;56451;44.804;20.476;2023-08-12T05:42:58;20.55;56.83
68867;SHT30;56451;44.804;20.476;2023-08-12T05:45:24;20.59;56.84
68867;SHT30;56451;44.804;20.476;2023-08-12T05:47:50;20.61;56.77
68867;SHT30;56451;44.804;20.476;2023-08-12T05:50:16;20.58;56.95
68867;SHT30;56451;44.804;20.476;2023-08-12T05:52:43;20.65;56.88
68867;SHT30;56451;44.804;20.476;2023-08-12T05:55:09;20.64;56.82
68867;SHT30;56451;44.804;20.476;2023-08-12T05:57:35;20.67;56.94
68867;SHT30;56451;44.804;20.476;2023-08-12T06:00:01;20.71;56.52
68867;SHT30;56451;44.804;20.476;2023-08-12T06:02:37;20.76;56.44
68867;SHT30;56451;44.804;20.476;2023-08-12T06:05:04;20.75;56.23
68867;SHT30;56451;44.804;20.476;2023-08-12T06:07:30;20.75;56.42
68867;SHT30;56451;44.804;20.476;2023-08-12T06:09:56;20.75;56.72
68867;SHT30;56451;44.804;20.476;2023-08-12T06:12:22;20.78;56.92
68867;SHT30;56451;44.804;20.476;2023-08-12T06:14:47;20.79;57.11
68867;SHT30;56451;44.804;20.476;2023-08-12T06:17:13;20.79;56.65
68867;SHT30;56451;44.804;20.476;2023-08-12T06:19:39;20.82;56.84
68867;SHT30;56451;44.804;20.476;2023-08-12T06:22:05;20.86;56.99
68867;SHT30;56451;44.804;20.476;2023-08-12T06:24:31;20.93;57.08
68867;SHT30;56451;44.804;20.476;2023-08-12T06:26:57;20.99;56.75
68867;SHT30;56451;44.804;20.476;2023-08-12T06:29:23;21.06;56.51
68867;SHT30;56451;44.804;20.476;2023-08-12T06:31:49;21.06;56.66
68867;SHT30;56451;44.804;20.476;2023-08-12T06:34:15;21.11;56.70
68867;SHT30;56451;44.804;20.476;2023-08-12T06:36:40;21.07;56.80
68867;SHT30;56451;44.804;20.476;2023-08-12T06:39:06;21.16;56.50
68867;SHT30;56451;44.804;20.476;2023-08-12T06:41:33;21.19;56.50
68867;SHT30;56451;44.804;20.476;2023-08-12T06:43:58;21.23;56.62
68867;SHT30;56451;44.804;20.476;2023-08-12T06:46:24;21.24;57.08
68867;SHT30;56451;44.804;20.476;2023-08-12T06:48:50;21.26;57.04
68867;SHT30;56451;44.804;20.476;2023-08-12T06:51:16;21.31;56.77
68867;SHT30;56451;44.804;20.476;2023-08-12T06:53:42;21.37;56.65
68867;SHT30;56451;44.804;20.476;2023-08-12T06:56:08;21.37;56.17
68867;SHT30;56451;44.804;20.476;2023-08-12T06:58:34;21.43;56.12
68867;SHT30;56451;44.804;20.476;2023-08-12T07:01:00;21.37;56.31
68867;SHT30;56451;44.804;20.476;2023-08-12T07:03:26;21.37;56.50
68867;SHT30;56451;44.804;20.476;2023-08-12T07:05:53;21.43;56.47
68867;SHT30;56451;44.804;20.476;2023-08-12T07:08:19;21.50;56.13
68867;SHT30;56451;44.804;20.476;2023-08-12T07:10:45;21.48;56.21
68867;SHT30;56451;44.804;20.476;2023-08-12T07:13:11;21.53;56.58
68867;SHT30;56451;44.804;20.476;2023-08-12T07:15:37;21.53;57.15
68867;SHT30;56451;44.804;20.476;2023-08-12T07:18:03;21.58;56.39
68867;SHT30;56451;44.804;20.476;2023-08-12T07:20:29;21.60;56.19
68867;SHT30;56451;44.804;20.476;2023-08-12T07:22:54;21.62;56.30
68867;SHT30;56451;44.804;20.476;2023-08-12T07:25:21;21.65;56.24
68867;SHT30;56451;44.804;20.476;2023-08-12T07:27:48;21.73;56.18
68867;SHT30;56451;44.804;20.476;2023-08-12T07:30:14;21.75;56.04
68867;SHT30;56451;44.804;20.476;2023-08-12T07:32:40;21.79;55.82
68867;SHT30;56451;44.804;20.476;2023-08-12T07:35:06;21.81;55.63
68867;SHT30;56451;44.804;20.476;2023-08-12T07:37:32;21.88;55.23
68867;SHT30;56451;44.804;20.476;2023-08-12T07:39:58;21.92;55.04
68867;SHT30;56451;44.804;20.476;2023-08-12T07:42:24;21.99;55.11
68867;SHT30;56451;44.804;20.476;2023-08-12T07:44:50;22.04;55.04
68867;SHT30;56451;44.804;20.476;2023-08-12T07:47:16;22.15;55.40
68867;SHT30;56451;44.804;20.476;2023-08-12T07:49:42;22.17;55.02
68867;SHT30;56451;44.804;20.476;2023-08-12T07:52:08;22.22;54.60
68867;SHT30;56451;44.804;20.476;2023-08-12T07:54:35;22.26;54.25
68867;SHT30;56451;44.804;20.476;2023-08-12T07:57:01;22.32;54.38
68867;SHT30;56451;44.804;20.476;2023-08-12T07:59:27;22.39;54.02
68867;SHT30;56451;44.804;20.476;2023-08-12T08:01:53;22.46;54.08
68867;SHT30;56451;44.804;20.476;2023-08-12T08:04:18;22.45;53.97
68867;SHT30;56451;44.804;20.476;2023-08-12T08:06:44;22.50;54.07
68867;SHT30;56451;44.804;20.476;2023-08-12T08:09:10;22.59;54.69
68867;SHT30;56451;44.804;20.476;2023-08-12T08:11:36;22.60;54.29
68867;SHT30;56451;44.804;20.476;2023-08-12T08:14:02;22.66;53.76
68867;SHT30;56451;44.804;20.476;2023-08-12T08:16:28;22.75;54.31
68867;SHT30;56451;44.804;20.476;2023-08-12T08:18:54;22.73;53.90
68867;SHT30;56451;44.804;20.476;2023-08-12T08:21:20;22.71;54.05
68867;SHT30;56451;44.804;20.476;2023-08-12T08:23:46;22.80;53.87
68867;SHT30;56451;44.804;20.476;2023-08-12T08:26:12;22.88;53.58
68867;SHT30;56451;44.804;20.476;2023-08-12T08:28:39;22.98;52.34
68867;SHT30;56451;44.804;20.476;2023-08-12T08:31:04;23.08;51.54
68867;SHT30;56451;44.804;20.476;2023-08-12T08:33:30;23.08;52.04
68867;SHT30;56451;44.804;20.476;2023-08-12T08:35:56;23.14;52.43
68867;SHT30;56451;44.804;20.476;2023-08-12T08:38:22;23.28;52.03
68867;SHT30;56451;44.804;20.476;2023-08-12T08:40:51;23.39;51.13
68867;SHT30;56451;44.804;20.476;2023-08-12T08:43:21;23.51;48.98
68867;SHT30;56451;44.804;20.476;2023-08-12T08:45:53;23.58;49.00
68867;SHT30;56451;44.804;20.476;2023-08-12T08:48:20;23.62;48.37
68867;SHT30;56451;44.804;20.476;2023-08-12T08:50:47;23.59;48.24
68867;SHT30;56451;44.804;20.476;2023-08-12T08:53:14;23.63;48.35
68867;SHT30;56451;44.804;20.476;2023-08-12T08:55:41;23.73;46.57
68867;SHT30;56451;44.804;20.476;2023-08-12T08:58:07;23.73;46.47
68867;SHT30;56451;44.804;20.476;2023-08-12T09:00:35;23.80;46.53
68867;SHT30;56451;44.804;20.476;2023-08-12T09:03:00;23.83;46.36
68867;SHT30;56451;44.804;20.476;2023-08-12T09:05:27;23.81;46.07
68867;SHT30;56451;44.804;20.476;2023-08-12T09:07:55;23.90;46.35
68867;SHT30;56451;44.804;20.476;2023-08-12T09:10:22;23.90;46.54
68867;SHT30;56451;44.804;20.476;2023-08-12T09:12:49;23.93;46.23
68867;SHT30;56451;44.804;20.476;2023-08-12T09:15:18;23.97;46.59
68867;SHT30;56451;44.804;20.476;2023-08-12T09:17:44;24.03;46.74
68867;SHT30;56451;44.804;20.476;2023-08-12T09:20:10;23.97;47.21
68867;SHT30;56451;44.804;20.476;2023-08-12T09:22:43;24.00;47.92
68867;SHT30;56451;44.804;20.476;2023-08-12T09:25:11;24.04;47.94
68867;SHT30;56451;44.804;20.476;2023-08-12T09:27:38;24.14;47.93
68867;SHT30;56451;44.804;20.476;2023-08-12T09:30:07;24.28;46.54
68867;SHT30;56451;44.804;20.476;2023-08-12T09:32:33;24.35;45.67
68867;SHT30;56451;44.804;20.476;2023-08-12T09:35:04;24.44;45.14
68867;SHT30;56451;44.804;20.476;2023-08-12T09:37:32;24.45;45.86
68867;SHT30;56451;44.804;20.476;2023-08-12T09:39:58;24.55;46.02
68867;SHT30;56451;44.804;20.476;2023-08-12T09:42:24;24.65;44.93
68867;SHT30;56451;44.804;20.476;2023-08-12T09:44:50;24.68;44.26
68867;SHT30;56451;44.804;20.476;2023-08-12T09:47:16;24.69;44.52
68867;SHT30;56451;44.804;20.476;2023-08-12T09:49:42;24.72;45.17
68867;SHT30;56451;44.804;20.476;2023-08-12T09:52:09;24.78;45.05
68867;SHT30;56451;44.804;20.476;2023-08-12T09:54:35;24.90;44.26
68867;SHT30;56451;44.804;20.476;2023-08-12T09:57:02;24.99;43.33
68867;SHT30;56451;44.804;20.476;2023-08-12T09:59:32;25.03;42.51
68867;SHT30;56451;44.804;20.476;2023-08-12T10:02:00;24.99;43.08
68867;SHT30;56451;44.804;20.476;2023-08-12T10:04:35;25.00;43.46
68867;SHT30;56451;44.804;20.476;2023-08-12T10:07:03;25.03;43.57
68867;SHT30;56451;44.804;20.476;2023-08-12T10:09:32;25.10;40.53
68867;SHT30;56451;44.804;20.476;2023-08-12T10:11:58;25.19;40.30
68867;SHT30;56451;44.804;20.476;2023-08-12T10:14:25;25.23;40.22
68867;SHT30;56451;44.804;20.476;2023-08-12T10:16:52;25.22;42.00
68867;SHT30;56451;44.804;20.476;2023-08-12T10:19:19;25.27;40.83
68867;SHT30;56451;44.804;20.476;2023-08-12T10:21:48;25.34;40.57
68867;SHT30;56451;44.804;20.476;2023-08-12T10:24:16;25.35;42.35
68867;SHT30;56451;44.804;20.476;2023-08-12T10:26:42;25.43;42.21
68867;SHT30;56451;44.804;20.476;2023-08-12T10:29:09;25.53;42.69
68867;SHT30;56451;44.804;20.476;2023-08-12T10:31:35;25.60;41.89
68867;SHT30;56451;44.804;20.476;2023-08-12T10:34:01;25.70;41.98
68867;SHT30;56451;44.804;20.476;2023-08-12T10:36:27;25.77;41.49
68867;SHT30;56451;44.804;20.476;2023-08-12T10:38:53;25.88;41.03
68867;SHT30;56451;44.804;20.476;2023-08-12T10:41:24;25.92;39.65
68867;SHT30;56451;44.804;20.476;2023-08-12T10:43:59;26.01;40.89
68867;SHT30;56451;44.804;20.476;2023-08-12T10:46:30;26.11;39.37
68867;SHT30;56451;44.804;20.476;2023-08-12T10:48:58;26.12;38.15
68867;SHT30;56451;44.804;20.476;2023-08-12T10:51:47;26.12;38.36
68867;SHT30;56451;44.804;20.476;2023-08-12T10:54:17;26.11;39.75
68867;SHT30;56451;44.804;20.476;2023-08-12T10:59:51;26.16;39.54
68867;SHT30;56451;44.804;20.476;2023-08-12T11:04:54;26.26;38.11
68867;SHT30;56451;44.804;20.476;2023-08-12T11:07:41;26.30;35.00
68867;SHT30;56451;44.804;20.476;2023-08-12T11:10:22;26.33;34.90
68867;SHT30;56451;44.804;20.476;2023-08-12T11:15:43;26.29;35.45
68867;SHT30;56451;44.804;20.476;2023-08-12T11:18:16;26.33;36.63
68867;SHT30;56451;44.804;20.476;2023-08-12T11:20:42;26.37;36.55
68867;SHT30;56451;44.804;20.476;2023-08-12T11:23:09;26.41;35.60
68867;SHT30;56451;44.804;20.476;2023-08-12T11:25:38;26.47;35.07
68867;SHT30;56451;44.804;20.476;2023-08-12T11:28:06;26.53;37.01
68867;SHT30;56451;44.804;20.476;2023-08-12T11:30:32;26.56;36.81
68867;SHT30;56451;44.804;20.476;2023-08-12T11:32:59;26.71;35.79
68867;SHT30;56451;44.804;20.476;2023-08-12T11:35:25;26.80;34.50
68867;SHT30;56451;44.804;20.476;2023-08-12T11:37:53;26.86;33.90
68867;SHT30;56451;44.804;20.476;2023-08-12T11:40:21;26.86;33.64
68867;SHT30;56451;44.804;20.476;2023-08-12T11:42:48;26.81;34.28
68867;SHT30;56451;44.804;20.476;2023-08-12T11:45:22;26.81;35.05
68867;SHT30;56451;44.804;20.476;2023-08-12T11:47:49;26.88;34.21
68867;SHT30;56451;44.804;20.476;2023-08-12T11:50:19;26.88;34.90
68867;SHT30;56451;44.804;20.476;2023-08-12T11:52:45;26.97;35.18
68867;SHT30;56451;44.804;20.476;2023-08-12T11:55:12;27.02;35.62
68867;SHT30;56451;44.804;20.476;2023-08-12T11:57:40;27.08;35.52
68867;SHT30;56451;44.804;20.476;2023-08-12T12:00:09;27.21;34.70
68867;SHT30;56451;44.804;20.476;2023-08-12T12:02:54;27.26;34.05
68867;SHT30;56451;44.804;20.476;2023-08-12T12:05:26;27.31;33.72
68867;SHT30;56451;44.804;20.476;2023-08-12T12:07:52;27.29;33.16
68867;SHT30;56451;44.804;20.476;2023-08-12T12:10:34;27.22;34.18
68867;SHT30;56451;44.804;20.476;2023-08-12T12:13:02;27.19;34.80
68867;SHT30;56451;44.804;20.476;2023-08-12T12:15:29;27.18;35.32
68867;SHT30;56451;44.804;20.476;2023-08-12T12:17:55;27.26;34.86
68867;SHT30;56451;44.804;20.476;2023-08-12T12:20:21;27.35;34.77
68867;SHT30;56451;44.804;20.476;2023-08-12T12:22:47;27.39;34.49
68867;SHT30;56451;44.804;20.476;2023-08-12T12:25:15;27.41;34.60
68867;SHT30;56451;44.804;20.476;2023-08-12T12:27:43;27.42;35.27
68867;SHT30;56451;44.804;20.476;2023-08-12T12:30:13;27.50;35.09
68867;SHT30;56451;44.804;20.476;2023-08-12T12:32:39;27.50;35.38
68867;SHT30;56451;44.804;20.476;2023-08-12T12:35:06;27.55;35.37
68867;SHT30;56451;44.804;20.476;2023-08-12T12:37:33;27.63;34.84
68867;SHT30;56451;44.804;20.476;2023-08-12T12:39:59;27.67;34.63
68867;SHT30;56451;44.804;20.476;2023-08-12T12:42:25;27.69;34.63
68867;SHT30;56451;44.804;20.476;2023-08-12T12:44:51;27.67;33.99
68867;SHT30;56451;44.804;20.476;2023-08-12T12:47:17;27.67;34.76
68867;SHT30;56451;44.804;20.476;2023-08-12T12:49:45;27.65;34.63
68867;SHT30;56451;44.804;20.476;2023-08-12T12:52:11;27.60;35.05
68867;SHT30;56451;44.804;20.476;2023-08-12T12:54:37;27.62;34.99
68867;SHT30;56451;44.804;20.476;2023-08-12T12:57:03;27.63;35.29
68867;SHT30;56451;44.804;20.476;2023-08-12T12:59:30;27.67;35.86
68867;SHT30;56451;44.804;20.476;2023-08-12T13:01:56;27.77;35.27
68867;SHT30;56451;44.804;20.476;2023-08-12T13:04:22;27.84;34.19
68867;SHT30;56451;44.804;20.476;2023-08-12T13:06:48;27.92;33.79
68867;SHT30;56451;44.804;20.476;2023-08-12T13:09:14;27.87;34.66
68867;SHT30;56451;44.804;20.476;2023-08-12T13:11:40;27.96;34.36
68867;SHT30;56451;44.804;20.476;2023-08-12T13:14:06;27.90;34.37
68867;SHT30;56451;44.804;20.476;2023-08-12T13:16:32;27.84;34.40
68867;SHT30;56451;44.804;20.476;2023-08-12T13:18:58;27.82;34.57
68867;SHT30;56451;44.804;20.476;2023-08-12T13:21:25;27.77;35.35
68867;SHT30;56451;44.804;20.476;2023-08-12T13:23:52;27.83;34.87
68867;SHT30;56451;44.804;20.476;2023-08-12T13:26:18;27.90;34.05
68867;SHT30;56451;44.804;20.476;2023-08-12T13:28:44;27.93;34.13
68867;SHT30;56451;44.804;20.476;2023-08-12T13:31:10;27.98;34.13
68867;SHT30;56451;44.804;20.476;2023-08-12T13:33:36;28.05;34.89
68867;SHT30;56451;44.804;20.476;2023-08-12T13:36:02;28.18;32.85
68867;SHT30;56451;44.804;20.476;2023-08-12T13:38:28;28.24;33.42
68867;SHT30;56451;44.804;20.476;2023-08-12T13:40:54;28.22;33.97
68867;SHT30;56451;44.804;20.476;2023-08-12T13:43:20;28.28;34.12
68867;SHT30;56451;44.804;20.476;2023-08-12T13:45:46;28.40;33.39
68867;SHT30;56451;44.804;20.476;2023-08-12T13:48:11;28.51;32.85
68867;SHT30;56451;44.804;20.476;2023-08-12T13:50:37;28.59;33.64
68867;SHT30;56451;44.804;20.476;2023-08-12T13:53:03;28.73;32.08
68867;SHT30;56451;44.804;20.476;2023-08-12T13:55:29;28.76;31.67
68867;SHT30;56451;44.804;20.476;2023-08-12T13:57:55;28.82;32.10
68867;SHT30;56451;44.804;20.476;2023-08-12T14:00:21;28.82;32.20
68867;SHT30;56451;44.804;20.476;2023-08-12T14:02:47;28.90;31.65
68867;SHT30;56451;44.804;20.476;2023-08-12T14:05:14;28.92;31.58
68867;SHT30;56451;44.804;20.476;2023-08-12T14:07:40;28.95;32.21
68867;SHT30;56451;44.804;20.476;2023-08-12T14:10:07;29.00;32.17
68867;SHT30;56451;44.804;20.476;2023-08-12T14:12:32;29.04;32.26
68867;SHT30;56451;44.804;20.476;2023-08-12T14:14:58;29.10;33.36
68867;SHT30;56451;44.804;20.476;2023-08-12T14:17:25;29.21;31.40
68867;SHT30;56451;44.804;20.476;2023-08-12T14:19:51;29.24;31.25
68867;SHT30;56451;44.804;20.476;2023-08-12T14:22:19;29.23;31.81
68867;SHT30;56451;44.804;20.476;2023-08-12T14:24:45;29.20;31.57
68867;SHT30;56451;44.804;20.476;2023-08-12T14:27:17;29.17;31.84
68867;SHT30;56451;44.804;20.476;2023-08-12T14:29:46;29.13;31.97
68867;SHT30;56451;44.804;20.476;2023-08-12T14:32:12;29.16;31.49
68867;SHT30;56451;44.804;20.476;2023-08-12T14:34:38;29.11;32.67
68867;SHT30;56451;44.804;20.476;2023-08-12T14:37:04;29.23;31.68
68867;SHT30;56451;44.804;20.476;2023-08-12T14:39:30;29.34;31.57
68867;SHT30;56451;44.804;20.476;2023-08-12T14:41:56;29.41;31.88
68867;SHT30;56451;44.804;20.476;2023-08-12T14:44:22;29.48;32.03
68867;SHT30;56451;44.804;20.476;2023-08-12T14:46:47;29.61;31.21
68867;SHT30;56451;44.804;20.476;2023-08-12T14:49:13;29.65;30.41
68867;SHT30;56451;44.804;20.476;2023-08-12T14:51:40;29.65;31.05
68867;SHT30;56451;44.804;20.476;2023-08-12T14:54:06;29.71;30.43
68867;SHT30;56451;44.804;20.476;2023-08-12T14:56:31;29.78;30.99
68867;SHT30;56451;44.804;20.476;2023-08-12T14:58:57;29.82;30.21
68867;SHT30;56451;44.804;20.476;2023-08-12T15:01:23;29.93;30.00
68867;SHT30;56451;44.804;20.476;2023-08-12T15:03:52;29.99;30.14
68867;SHT30;56451;44.804;20.476;2023-08-12T15:06:21;30.04;30.20
68867;SHT30;56451;44.804;20.476;2023-08-12T15:08:46;30.01;30.40
68867;SHT30;56451;44.804;20.476;2023-08-12T15:11:13;29.99;31.02
68867;SHT30;56451;44.804;20.476;2023-08-12T15:13:38;30.08;31.95
68867;SHT30;56451;44.804;20.476;2023-08-12T15:16:04;30.17;30.71
68867;SHT30;56451;44.804;20.476;2023-08-12T15:18:31;30.22;30.78
68867;SHT30;56451;44.804;20.476;2023-08-12T15:20:56;30.26;30.30
68867;SHT30;56451;44.804;20.476;2023-08-12T15:23:22;30.10;30.21
68867;SHT30;56451;44.804;20.476;2023-08-12T15:25:48;30.04;30.01
68867;SHT30;56451;44.804;20.476;2023-08-12T15:28:14;30.02;29.90